sensor_id;sensor_type;location;lat;lon;timestamp;temperature;humidity
27858;DHT22;16852;51.446;6.528;2023-09-30T00:01:45;16.00;99.90
27858;DHT22;16852;51.446;6.528;2023-09-30T00:03:46;16.00;99.90
27858;DHT22;16852;51.446;6.528;2023-09-30T00:05:46;16.00;99.90
27858;DHT22;16852;51.446;6.528;2023-09-30T00:07:47;16.00;99.90
27858;DHT22;16852;51.446;6.528;2023-09-30T00:09:48;16.00;99.90
27858;DHT22;16852;51.446;6.528;2023-09-30T00:11:48;16.00;99.90
27858;DHT22;16852;51.446;6.528;2023-09-30T00:13:49;16.00;99.90
27858;DHT22;16852;51.446;6.528;2023-09-30T00:15:50;16.00;99.90
27858;DHT22;16852;51.446;6.528;2023-09-30T00:17:51;16.10;99.90
27858;DHT22;16852;51.446;6.528;2023-09-30T00:19:51;16.00;99.90
27858;DHT22;16852;51.446;6.528;2023-09-30T00:21:52;16.00;99.90
27858;DHT22;16852;51.446;6.528;2023-09-30T00:23:52;16.10;99.90
27858;DHT22;16852;51.446;6.528;2023-09-30T00:25:53;16.10;99.90
27858;DHT22;16852;51.446;6.528;2023-09-30T00:27:54;16.10;99.90
27858;DHT22;16852;51.446;6.528;2023-09-30T00:29:54;16.10;99.90
27858;DHT22;16852;51.446;6.528;2023-09-30T00:31:55;16.10;99.90
27858;DHT22;16852;51.446;6.528;2023-09-30T00:33:55;16.10;99.90
27858;DHT22;16852;51.446;6.528;2023-09-30T00:35:56;16.10;99.90
27858;DHT22;16852;51.446;6.528;2023-09-30T00:37:57;16.20;99.90
27858;DHT22;16852;51.446;6.528;2023-09-30T00:39:57;16.10;99.90
27858;DHT22;16852;51.446;6.528;2023-09-30T00:41:58;16.20;99.90
27858;DHT22;16852;51.446;6.528;2023-09-30T00:43:59;16.10;99.90
27858;DHT22;16852;51.446;6.528;2023-09-30T00:48:12;16.20;99.90
27858;DHT22;16852;51.446;6.528;2023-09-30T00:50:14;16.10;99.90
27858;DHT22;16852;51.446;6.528;2023-09-30T00:52:14;16.10;99.90
27858;DHT22;16852;51.446;6.528;2023-09-30T00:54:16;16.10;99.90
27858;DHT22;16852;51.446;6.528;2023-09-30T00:56:18;16.20;99.90
27858;DHT22;16852;51.446;6.528;2023-09-30T00:58:19;16.20;99.90
27858;DHT22;16852;51.446;6.528;2023-09-30T01:00:20;16.20;99.90
27858;DHT22;16852;51.446;6.528;2023-09-30T01:02:22;16.20;99.90
27858;DHT22;16852;51.446;6.528;2023-09-30T01:04:23;16.20;99.90
27858;DHT22;16852;51.446;6.528;2023-09-30T01:06:24;16.20;99.90
27858;DHT22;16852;51.446;6.528;2023-09-30T01:08:24;16.20;99.90
27858;DHT22;16852;51.446;6.528;2023-09-30T01:10:26;16.10;99.90
27858;DHT22;16852;51.446;6.528;2023-09-30T01:12:28;16.20;99.90
27858;DHT22;16852;51.446;6.528;2023-09-30T01:14:31;16.20;99.90
27858;DHT22;16852;51.446;6.528;2023-09-30T01:16:32;16.20;99.90
27858;DHT22;16852;51.446;6.528;2023-09-30T01:18:33;16.10;99.90
27858;DHT22;16852;51.446;6.528;2023-09-30T01:20:33;16.20;99.90
27858;DHT22;16852;51.446;6.528;2023-09-30T01:22:34;16.10;99.90
27858;DHT22;16852;51.446;6.528;2023-09-30T01:24:41;16.20;99.90
27858;DHT22;16852;51.446;6.528;2023-09-30T01:26:45;16.10;99.90
27858;DHT22;16852;51.446;6.528;2023-09-30T01:28:46;16.10;99.90
27858;DHT22;16852;51.446;6.528;2023-09-30T01:30:49;16.20;99.90
27858;DHT22;16852;51.446;6.528;2023-09-30T01:32:49;16.20;99.90
27858;DHT22;16852;51.446;6.528;2023-09-30T01:34:50;16.20;99.90
27858;DHT22;16852;51.446;6.528;2023-09-30T01:36:51;16.20;99.90
27858;DHT22;16852;51.446;6.528;2023-09-30T01:38:51;16.20;99.90
27858;DHT22;16852;51.446;6.528;2023-09-30T01:40:52;16.20;99.90
27858;DHT22;16852;51.446;6.528;2023-09-30T01:42:56;16.20;99.90
27858;DHT22;16852;51.446;6.528;2023-09-30T01:44:57;16.10;99.90
27858;DHT22;16852;51.446;6.528;2023-09-30T01:46:58;16.10;99.90
27858;DHT22;16852;51.446;6.528;2023-09-30T01:48:59;16.10;99.90
27858;DHT22;16852;51.446;6.528;2023-09-30T01:51:00;16.10;99.90
27858;DHT22;16852;51.446;6.528;2023-09-30T01:53:01;16.10;99.90
27858;DHT22;16852;51.446;6.528;2023-09-30T01:55:02;16.10;99.90
27858;DHT22;16852;51.446;6.528;2023-09-30T01:57:02;16.10;99.90
27858;DHT22;16852;51.446;6.528;2023-09-30T01:59:03;16.10;99.90
27858;DHT22;16852;51.446;6.528;2023-09-30T02:01:04;16.10;99.90
27858;DHT22;16852;51.446;6.528;2023-09-30T02:03:05;16.00;99.90
27858;DHT22;16852;51.446;6.528;2023-09-30T02:05:06;16.00;99.90
27858;DHT22;16852;51.446;6.528;2023-09-30T02:07:08;16.00;99.90
27858;DHT22;16852;51.446;6.528;2023-09-30T02:09:09;16.00;99.90
27858;DHT22;16852;51.446;6.528;2023-09-30T02:11:09;16.00;99.90
27858;DHT22;16852;51.446;6.528;2023-09-30T02:13:10;16.00;99.90
27858;DHT22;16852;51.446;6.528;2023-09-30T02:15:11;15.90;99.90
27858;DHT22;16852;51.446;6.528;2023-09-30T02:17:12;15.90;99.90
27858;DHT22;16852;51.446;6.528;2023-09-30T02:19:13;15.90;99.90
27858;DHT22;16852;51.446;6.528;2023-09-30T02:21:14;15.90;99.90
27858;DHT22;16852;51.446;6.528;2023-09-30T02:23:14;15.90;99.90
27858;DHT22;16852;51.446;6.528;2023-09-30T02:25:17;15.90;99.90
27858;DHT22;16852;51.446;6.528;2023-09-30T02:27:18;16.00;99.90
27858;DHT22;16852;51.446;6.528;2023-09-30T02:29:18;16.00;99.90
27858;DHT22;16852;51.446;6.528;2023-09-30T02:31:20;16.00;99.90
27858;DHT22;16852;51.446;6.528;2023-09-30T02:33:20;15.90;99.90
27858;DHT22;16852;51.446;6.528;2023-09-30T02:35:21;15.90;99.90
27858;DHT22;16852;51.446;6.528;2023-09-30T02:37:22;15.90;99.90
27858;DHT22;16852;51.446;6.528;2023-09-30T02:39:22;15.90;99.90
27858;DHT22;16852;51.446;6.528;2023-09-30T02:41:23;15.90;99.90
27858;DHT22;16852;51.446;6.528;2023-09-30T02:43:24;15.80;99.90
27858;DHT22;16852;51.446;6.528;2023-09-30T02:45:24;15.70;99.90
27858;DHT22;16852;51.446;6.528;2023-09-30T02:47:25;15.70;99.90
27858;DHT22;16852;51.446;6.528;2023-09-30T02:49:25;15.70;99.90
27858;DHT22;16852;51.446;6.528;2023-09-30T02:51:26;15.70;99.90
27858;DHT22;16852;51.446;6.528;2023-09-30T02:53:27;15.70;99.90
27858;DHT22;16852;51.446;6.528;2023-09-30T02:55:28;15.70;99.90
27858;DHT22;16852;51.446;6.528;2023-09-30T02:57:28;15.70;99.90
27858;DHT22;16852;51.446;6.528;2023-09-30T02:59:30;15.70;99.90
27858;DHT22;16852;51.446;6.528;2023-09-30T03:01:30;15.70;99.90
27858;DHT22;16852;51.446;6.528;2023-09-30T03:03:31;15.70;99.90
27858;DHT22;16852;51.446;6.528;2023-09-30T03:05:32;15.70;99.90
27858;DHT22;16852;51.446;6.528;2023-09-30T03:07:33;15.70;99.90
27858;DHT22;16852;51.446;6.528;2023-09-30T03:09:34;15.70;99.90
27858;DHT22;16852;51.446;6.528;2023-09-30T03:11:36;15.60;99.90
27858;DHT22;16852;51.446;6.528;2023-09-30T03:13:36;15.60;99.90
27858;DHT22;16852;51.446;6.528;2023-09-30T03:15:37;15.60;99.90
27858;DHT22;16852;51.446;6.528;2023-09-30T03:17:39;15.60;99.90
27858;DHT22;16852;51.446;6.528;2023-09-30T03:19:40;15.60;99.90
27858;DHT22;16852;51.446;6.528;2023-09-30T03:21:40;15.60;99.90
27858;DHT22;16852;51.446;6.528;2023-09-30T03:23:42;15.50;99.90
27858;DHT22;16852;51.446;6.528;2023-09-30T03:25:42;15.50;99.90
27858;DHT22;16852;51.446;6.528;2023-09-30T03:27:46;15.50;99.90
27858;DHT22;16852;51.446;6.528;2023-09-30T03:29:47;15.50;99.90
27858;DHT22;16852;51.446;6.528;2023-09-30T03:31:48;15.50;99.90
27858;DHT22;16852;51.446;6.528;2023-09-30T03:33:50;15.50;99.90
27858;DHT22;16852;51.446;6.528;2023-09-30T03:35:54;15.50;99.90
27858;DHT22;16852;51.446;6.528;2023-09-30T03:37:54;15.50;99.90
27858;DHT22;16852;51.446;6.528;2023-09-30T03:39:55;15.50;99.90
27858;DHT22;16852;51.446;6.528;2023-09-30T03:41:56;15.50;99.90
27858;DHT22;16852;51.446;6.528;2023-09-30T03:43:58;15.50;99.90
27858;DHT22;16852;51.446;6.528;2023-09-30T03:45:59;15.50;99.90
27858;DHT22;16852;51.446;6.528;2023-09-30T03:48:01;15.50;99.90
27858;DHT22;16852;51.446;6.528;2023-09-30T03:50:03;15.50;99.90
27858;DHT22;16852;51.446;6.528;2023-09-30T03:52:05;15.50;99.90
27858;DHT22;16852;51.446;6.528;2023-09-30T03:54:06;15.50;99.90
27858;DHT22;16852;51.446;6.528;2023-09-30T03:56:07;15.50;99.90
27858;DHT22;16852;51.446;6.528;2023-09-30T03:58:08;15.50;99.90
27858;DHT22;16852;51.446;6.528;2023-09-30T04:00:09;15.50;99.90
27858;DHT22;16852;51.446;6.528;2023-09-30T04:02:19;15.50;99.90
27858;DHT22;16852;51.446;6.528;2023-09-30T04:04:20;15.60;99.90
27858;DHT22;16852;51.446;6.528;2023-09-30T04:06:22;15.50;99.90
27858;DHT22;16852;51.446;6.528;2023-09-30T04:08:22;15.60;99.90
27858;DHT22;16852;51.446;6.528;2023-09-30T04:10:23;15.50;99.90
27858;DHT22;16852;51.446;6.528;2023-09-30T04:12:24;15.50;99.90
27858;DHT22;16852;51.446;6.528;2023-09-30T04:14:24;15.50;99.90
27858;DHT22;16852;51.446;6.528;2023-09-30T04:16:25;15.50;99.90
27858;DHT22;16852;51.446;6.528;2023-09-30T04:18:29;15.50;99.90
27858;DHT22;16852;51.446;6.528;2023-09-30T04:20:31;15.40;99.90
27858;DHT22;16852;51.446;6.528;2023-09-30T04:22:31;15.40;99.90
27858;DHT22;16852;51.446;6.528;2023-09-30T04:24:33;15.50;99.90
27858;DHT22;16852;51.446;6.528;2023-09-30T04:26:34;15.40;99.90
27858;DHT22;16852;51.446;6.528;2023-09-30T04:28:35;15.40;99.90
27858;DHT22;16852;51.446;6.528;2023-09-30T04:30:36;15.40;99.90
27858;DHT22;16852;51.446;6.528;2023-09-30T04:32:37;15.40;99.90
27858;DHT22;16852;51.446;6.528;2023-09-30T04:34:38;15.40;99.90
27858;DHT22;16852;51.446;6.528;2023-09-30T04:36:39;15.40;99.90
27858;DHT22;16852;51.446;6.528;2023-09-30T04:38:40;15.40;99.90
27858;DHT22;16852;51.446;6.528;2023-09-30T04:40:40;15.40;99.90
27858;DHT22;16852;51.446;6.528;2023-09-30T04:42:44;15.40;99.90
27858;DHT22;16852;51.446;6.528;2023-09-30T04:44:44;15.40;99.90
27858;DHT22;16852;51.446;6.528;2023-09-30T04:46:45;15.40;99.90
27858;DHT22;16852;51.446;6.528;2023-09-30T04:48:46;15.30;99.90
27858;DHT22;16852;51.446;6.528;2023-09-30T04:50:49;15.40;99.90
27858;DHT22;16852;51.446;6.528;2023-09-30T04:52:53;15.30;99.90
27858;DHT22;16852;51.446;6.528;2023-09-30T04:54:54;15.30;99.90
27858;DHT22;16852;51.446;6.528;2023-09-30T04:56:54;15.30;99.90
27858;DHT22;16852;51.446;6.528;2023-09-30T04:58:55;15.30;99.90
27858;DHT22;16852;51.446;6.528;2023-09-30T05:00:56;15.30;99.90
27858;DHT22;16852;51.446;6.528;2023-09-30T05:02:57;15.30;99.90
27858;DHT22;16852;51.446;6.528;2023-09-30T05:04:59;15.30;99.90
27858;DHT22;16852;51.446;6.528;2023-09-30T05:06:59;15.20;99.90
27858;DHT22;16852;51.446;6.528;2023-09-30T05:09:00;15.20;99.90
27858;DHT22;16852;51.446;6.528;2023-09-30T05:11:01;15.30;99.90
27858;DHT22;16852;51.446;6.528;2023-09-30T05:13:01;15.20;99.90
27858;DHT22;16852;51.446;6.528;2023-09-30T05:15:04;15.20;99.90
27858;DHT22;16852;51.446;6.528;2023-09-30T05:17:06;15.20;99.90
27858;DHT22;16852;51.446;6.528;2023-09-30T05:19:09;15.10;99.90
27858;DHT22;16852;51.446;6.528;2023-09-30T05:21:09;15.10;99.90
27858;DHT22;16852;51.446;6.528;2023-09-30T05:23:10;15.10;99.90
27858;DHT22;16852;51.446;6.528;2023-09-30T05:25:16;15.00;99.90
27858;DHT22;16852;51.446;6.528;2023-09-30T05:27:18;15.00;99.90
27858;DHT22;16852;51.446;6.528;2023-09-30T05:29:18;15.00;99.90
27858;DHT22;16852;51.446;6.528;2023-09-30T05:31:20;15.00;99.90
27858;DHT22;16852;51.446;6.528;2023-09-30T05:33:22;15.00;99.90
27858;DHT22;16852;51.446;6.528;2023-09-30T05:35:23;15.00;99.90
27858;DHT22;16852;51.446;6.528;2023-09-30T05:37:24;15.00;99.90
27858;DHT22;16852;51.446;6.528;2023-09-30T05:39:26;15.00;99.90
27858;DHT22;16852;51.446;6.528;2023-09-30T05:41:27;15.00;99.90
27858;DHT22;16852;51.446;6.528;2023-09-30T05:43:28;15.00;99.90
27858;DHT22;16852;51.446;6.528;2023-09-30T05:45:33;15.00;99.90
27858;DHT22;16852;51.446;6.528;2023-09-30T05:47:36;15.00;99.90
27858;DHT22;16852;51.446;6.528;2023-09-30T05:49:37;15.00;99.90
27858;DHT22;16852;51.446;6.528;2023-09-30T05:51:38;14.90;99.90
27858;DHT22;16852;51.446;6.528;2023-09-30T05:53:38;15.00;99.90
27858;DHT22;16852;51.446;6.528;2023-09-30T05:55:40;14.90;99.90
27858;DHT22;16852;51.446;6.528;2023-09-30T05:57:47;14.90;99.90
27858;DHT22;16852;51.446;6.528;2023-09-30T05:59:48;15.00;99.90
27858;DHT22;16852;51.446;6.528;2023-09-30T06:01:50;14.90;99.90
27858;DHT22;16852;51.446;6.528;2023-09-30T06:03:51;14.90;99.90
27858;DHT22;16852;51.446;6.528;2023-09-30T06:05:51;15.00;99.90
27858;DHT22;16852;51.446;6.528;2023-09-30T06:07:52;14.90;99.90
27858;DHT22;16852;51.446;6.528;2023-09-30T06:09:54;15.00;99.90
27858;DHT22;16852;51.446;6.528;2023-09-30T06:11:55;15.00;99.90
27858;DHT22;16852;51.446;6.528;2023-09-30T06:13:57;15.00;99.90
27858;DHT22;16852;51.446;6.528;2023-09-30T06:16:01;15.00;99.90
27858;DHT22;16852;51.446;6.528;2023-09-30T06:18:03;15.00;99.90
27858;DHT22;16852;51.446;6.528;2023-09-30T06:20:05;15.00;99.90
27858;DHT22;16852;51.446;6.528;2023-09-30T06:22:16;15.10;99.90
27858;DHT22;16852;51.446;6.528;2023-09-30T06:24:16;15.10;99.90
27858;DHT22;16852;51.446;6.528;2023-09-30T06:26:18;15.10;99.90
27858;DHT22;16852;51.446;6.528;2023-09-30T06:28:18;15.10;99.90
27858;DHT22;16852;51.446;6.528;2023-09-30T06:30:26;15.10;99.90
27858;DHT22;16852;51.446;6.528;2023-09-30T06:32:34;15.10;99.90
27858;DHT22;16852;51.446;6.528;2023-09-30T06:34:35;15.10;99.90
27858;DHT22;16852;51.446;6.528;2023-09-30T06:36:36;15.10;99.90
27858;DHT22;16852;51.446;6.528;2023-09-30T06:38:38;15.10;99.90
27858;DHT22;16852;51.446;6.528;2023-09-30T06:40:38;15.10;99.90
27858;DHT22;16852;51.446;6.528;2023-09-30T06:42:43;15.20;99.90
27858;DHT22;16852;51.446;6.528;2023-09-30T06:44:43;15.30;99.90
27858;DHT22;16852;51.446;6.528;2023-09-30T06:46:44;15.40;99.90
27858;DHT22;16852;51.446;6.528;2023-09-30T06:48:44;15.40;99.90
27858;DHT22;16852;51.446;6.528;2023-09-30T06:50:46;15.60;99.90
27858;DHT22;16852;51.446;6.528;2023-09-30T06:52:48;15.70;99.90
27858;DHT22;16852;51.446;6.528;2023-09-30T06:54:52;15.90;99.90
27858;DHT22;16852;51.446;6.528;2023-09-30T06:56:53;16.00;99.90
27858;DHT22;16852;51.446;6.528;2023-09-30T06:58:54;16.10;99.90
27858;DHT22;16852;51.446;6.528;2023-09-30T07:00:54;16.30;99.90
27858;DHT22;16852;51.446;6.528;2023-09-30T07:02:55;16.50;99.90
27858;DHT22;16852;51.446;6.528;2023-09-30T07:04:55;16.70;99.90
27858;DHT22;16852;51.446;6.528;2023-09-30T07:06:56;16.90;99.90
27858;DHT22;16852;51.446;6.528;2023-09-30T07:08:57;17.00;99.90
27858;DHT22;16852;51.446;6.528;2023-09-30T07:10:57;17.20;99.90
27858;DHT22;16852;51.446;6.528;2023-09-30T07:12:58;17.30;99.90
27858;DHT22;16852;51.446;6.528;2023-09-30T07:14:58;17.50;99.90
27858;DHT22;16852;51.446;6.528;2023-09-30T07:17:02;17.60;99.90
27858;DHT22;16852;51.446;6.528;2023-09-30T07:19:04;17.80;99.90
27858;DHT22;16852;51.446;6.528;2023-09-30T07:21:05;18.00;99.90
27858;DHT22;16852;51.446;6.528;2023-09-30T07:23:06;18.20;99.90
27858;DHT22;16852;51.446;6.528;2023-09-30T07:25:07;18.40;99.90
27858;DHT22;16852;51.446;6.528;2023-09-30T07:27:09;18.70;99.90
27858;DHT22;16852;51.446;6.528;2023-09-30T07:29:10;18.80;99.90
27858;DHT22;16852;51.446;6.528;2023-09-30T07:31:10;19.00;99.90
27858;DHT22;16852;51.446;6.528;2023-09-30T07:33:12;19.20;99.90
27858;DHT22;16852;51.446;6.528;2023-09-30T07:35:13;19.40;99.90
27858;DHT22;16852;51.446;6.528;2023-09-30T07:37:16;19.60;99.90
27858;DHT22;16852;51.446;6.528;2023-09-30T07:39:18;19.80;99.90
27858;DHT22;16852;51.446;6.528;2023-09-30T07:41:19;20.00;99.90
27858;DHT22;16852;51.446;6.528;2023-09-30T07:43:19;20.20;99.90
27858;DHT22;16852;51.446;6.528;2023-09-30T07:45:20;20.40;99.90
27858;DHT22;16852;51.446;6.528;2023-09-30T07:47:21;20.50;99.90
27858;DHT22;16852;51.446;6.528;2023-09-30T07:49:22;20.60;99.90
27858;DHT22;16852;51.446;6.528;2023-09-30T07:51:24;20.80;99.90
27858;DHT22;16852;51.446;6.528;2023-09-30T07:53:25;21.10;99.90
27858;DHT22;16852;51.446;6.528;2023-09-30T07:55:25;21.30;99.90
27858;DHT22;16852;51.446;6.528;2023-09-30T07:57:26;21.40;99.90
27858;DHT22;16852;51.446;6.528;2023-09-30T07:59:27;21.60;99.90
27858;DHT22;16852;51.446;6.528;2023-09-30T08:01:28;21.70;99.90
27858;DHT22;16852;51.446;6.528;2023-09-30T08:03:30;21.70;99.90
27858;DHT22;16852;51.446;6.528;2023-09-30T08:05:32;21.80;99.90
27858;DHT22;16852;51.446;6.528;2023-09-30T08:07:33;22.00;99.90
27858;DHT22;16852;51.446;6.528;2023-09-30T08:09:34;22.10;99.90
27858;DHT22;16852;51.446;6.528;2023-09-30T08:11:35;22.10;99.90
27858;DHT22;16852;51.446;6.528;2023-09-30T08:13:37;22.10;99.90
27858;DHT22;16852;51.446;6.528;2023-09-30T08:15:38;22.00;99.90
27858;DHT22;16852;51.446;6.528;2023-09-30T08:17:39;22.10;99.90
27858;DHT22;16852;51.446;6.528;2023-09-30T08:19:39;22.00;99.90
27858;DHT22;16852;51.446;6.528;2023-09-30T08:21:40;21.90;99.90
27858;DHT22;16852;51.446;6.528;2023-09-30T08:23:41;21.90;99.90
27858;DHT22;16852;51.446;6.528;2023-09-30T08:25:41;21.90;99.90
27858;DHT22;16852;51.446;6.528;2023-09-30T08:27:42;21.90;99.90
27858;DHT22;16852;51.446;6.528;2023-09-30T08:29:43;21.80;99.90
27858;DHT22;16852;51.446;6.528;2023-09-30T08:31:43;21.80;99.90
27858;DHT22;16852;51.446;6.528;2023-09-30T08:33:44;21.80;99.90
27858;DHT22;16852;51.446;6.528;2023-09-30T08:35:46;21.80;99.90
27858;DHT22;16852;51.446;6.528;2023-09-30T08:37:46;21.90;99.90
27858;DHT22;16852;51.446;6.528;2023-09-30T08:39:47;21.90;99.90
27858;DHT22;16852;51.446;6.528;2023-09-30T08:41:47;21.90;99.90
27858;DHT22;16852;51.446;6.528;2023-09-30T08:43:48;21.90;99.90
27858;DHT22;16852;51.446;6.528;2023-09-30T08:45:51;21.80;99.90
27858;DHT22;16852;51.446;6.528;2023-09-30T08:47:54;21.70;99.90
27858;DHT22;16852;51.446;6.528;2023-09-30T08:49:54;21.50;99.90
27858;DHT22;16852;51.446;6.528;2023-09-30T08:51:58;21.50;99.90
27858;DHT22;16852;51.446;6.528;2023-09-30T08:54:01;21.40;99.90
27858;DHT22;16852;51.446;6.528;2023-09-30T08:56:05;21.40;99.90
27858;DHT22;16852;51.446;6.528;2023-09-30T08:58:12;21.40;99.90
27858;DHT22;16852;51.446;6.528;2023-09-30T09:00:13;21.40;99.90
27858;DHT22;16852;51.446;6.528;2023-09-30T09:02:14;21.40;99.90
27858;DHT22;16852;51.446;6.528;2023-09-30T09:04:15;21.40;99.90
27858;DHT22;16852;51.446;6.528;2023-09-30T09:06:16;21.40;99.90
27858;DHT22;16852;51.446;6.528;2023-09-30T09:08:17;21.40;99.90
27858;DHT22;16852;51.446;6.528;2023-09-30T09:10:24;21.40;99.90
27858;DHT22;16852;51.446;6.528;2023-09-30T09:12:24;21.30;99.90
27858;DHT22;16852;51.446;6.528;2023-09-30T09:14:39;21.40;99.90
27858;DHT22;16852;51.446;6.528;2023-09-30T09:16:54;21.40;99.90
27858;DHT22;16852;51.446;6.528;2023-09-30T09:18:55;21.30;99.90
27858;DHT22;16852;51.446;6.528;2023-09-30T09:21:08;21.30;99.90
27858;DHT22;16852;51.446;6.528;2023-09-30T09:23:14;21.10;99.90
27858;DHT22;16852;51.446;6.528;2023-09-30T09:25:15;21.10;99.90
27858;DHT22;16852;51.446;6.528;2023-09-30T09:27:16;21.10;99.90
27858;DHT22;16852;51.446;6.528;2023-09-30T09:29:25;21.10;99.90
27858;DHT22;16852;51.446;6.528;2023-09-30T09:31:32;21.00;99.90
27858;DHT22;16852;51.446;6.528;2023-09-30T09:33:37;21.00;99.90
27858;DHT22;16852;51.446;6.528;2023-09-30T09:35:38;20.90;99.90
27858;DHT22;16852;51.446;6.528;2023-09-30T09:37:39;20.90;99.90
27858;DHT22;16852;51.446;6.528;2023-09-30T09:39:39;21.00;99.90
27858;DHT22;16852;51.446;6.528;2023-09-30T09:41:54;20.90;99.90
27858;DHT22;16852;51.446;6.528;2023-09-30T09:43:59;21.00;99.90
27858;DHT22;16852;51.446;6.528;2023-09-30T09:46:00;20.90;99.90
27858;DHT22;16852;51.446;6.528;2023-09-30T09:48:04;20.80;99.90
27858;DHT22;16852;51.446;6.528;2023-09-30T09:50:06;20.80;99.90
27858;DHT22;16852;51.446;6.528;2023-09-30T09:52:07;20.70;99.90
27858;DHT22;16852;51.446;6.528;2023-09-30T09:54:08;20.80;99.90
27858;DHT22;16852;51.446;6.528;2023-09-30T09:56:09;20.70;99.90
27858;DHT22;16852;51.446;6.528;2023-09-30T09:58:10;20.70;99.90
27858;DHT22;16852;51.446;6.528;2023-09-30T10:00:13;20.60;99.90
27858;DHT22;16852;51.446;6.528;2023-09-30T10:02:16;20.70;99.90
27858;DHT22;16852;51.446;6.528;2023-09-30T10:04:18;20.70;99.90
27858;DHT22;16852;51.446;6.528;2023-09-30T10:06:18;20.60;99.90
27858;DHT22;16852;51.446;6.528;2023-09-30T10:08:31;20.70;99.90
27858;DHT22;16852;51.446;6.528;2023-09-30T10:10:36;20.70;99.90
27858;DHT22;16852;51.446;6.528;2023-09-30T10:12:38;20.70;99.90
27858;DHT22;16852;51.446;6.528;2023-09-30T10:14:39;20.80;99.90
27858;DHT22;16852;51.446;6.528;2023-09-30T10:19:17;20.90;99.90
27858;DHT22;16852;51.446;6.528;2023-09-30T10:21:18;21.00;99.90
27858;DHT22;16852;51.446;6.528;2023-09-30T10:23:37;20.90;99.90
27858;DHT22;16852;51.446;6.528;2023-09-30T10:25:38;20.90;99.90
27858;DHT22;16852;51.446;6.528;2023-09-30T10:27:40;20.90;99.90
27858;DHT22;16852;51.446;6.528;2023-09-30T10:29:44;20.90;99.90
27858;DHT22;16852;51.446;6.528;2023-09-30T10:31:51;20.90;99.90
27858;DHT22;16852;51.446;6.528;2023-09-30T10:36:02;20.90;99.90
27858;DHT22;16852;51.446;6.528;2023-09-30T10:40:30;20.80;99.90
27858;DHT22;16852;51.446;6.528;2023-09-30T10:42:46;20.90;99.90
27858;DHT22;16852;51.446;6.528;2023-09-30T10:44:49;20.90;99.90
27858;DHT22;16852;51.446;6.528;2023-09-30T10:46:50;20.90;99.90
27858;DHT22;16852;51.446;6.528;2023-09-30T10:48:51;20.90;99.90
27858;DHT22;16852;51.446;6.528;2023-09-30T10:50:59;20.80;99.90
27858;DHT22;16852;51.446;6.528;2023-09-30T10:53:04;20.80;99.90
27858;DHT22;16852;51.446;6.528;2023-09-30T10:55:06;20.80;99.90
27858;DHT22;16852;51.446;6.528;2023-09-30T10:57:10;20.80;99.90
27858;DHT22;16852;51.446;6.528;2023-09-30T10:59:24;20.90;99.90
27858;DHT22;16852;51.446;6.528;2023-09-30T11:01:25;20.90;99.90
27858;DHT22;16852;51.446;6.528;2023-09-30T11:03:32;20.90;99.90
27858;DHT22;16852;51.446;6.528;2023-09-30T11:05:32;20.90;99.90
27858;DHT22;16852;51.446;6.528;2023-09-30T11:07:35;20.90;99.90
27858;DHT22;16852;51.446;6.528;2023-09-30T11:09:37;20.80;99.90
27858;DHT22;16852;51.446;6.528;2023-09-30T11:11:39;20.80;99.90
27858;DHT22;16852;51.446;6.528;2023-09-30T11:13:43;20.80;99.90
27858;DHT22;16852;51.446;6.528;2023-09-30T11:15:44;20.80;99.90
27858;DHT22;16852;51.446;6.528;2023-09-30T11:17:45;20.80;99.90
27858;DHT22;16852;51.446;6.528;2023-09-30T11:19:47;20.80;99.90
27858;DHT22;16852;51.446;6.528;2023-09-30T11:21:49;20.80;99.90
27858;DHT22;16852;51.446;6.528;2023-09-30T11:23:50;20.80;99.90
27858;DHT22;16852;51.446;6.528;2023-09-30T11:25:54;20.70;99.90
27858;DHT22;16852;51.446;6.528;2023-09-30T11:28:15;20.70;99.90
27858;DHT22;16852;51.446;6.528;2023-09-30T11:30:15;20.80;99.90
27858;DHT22;16852;51.446;6.528;2023-09-30T11:32:26;20.70;99.90
27858;DHT22;16852;51.446;6.528;2023-09-30T11:34:35;20.60;99.90
27858;DHT22;16852;51.446;6.528;2023-09-30T11:36:41;20.70;99.90
27858;DHT22;16852;51.446;6.528;2023-09-30T11:38:46;20.60;99.90
27858;DHT22;16852;51.446;6.528;2023-09-30T11:41:04;20.70;99.90
27858;DHT22;16852;51.446;6.528;2023-09-30T11:43:07;20.60;99.90
27858;DHT22;16852;51.446;6.528;2023-09-30T11:45:23;20.60;99.90
27858;DHT22;16852;51.446;6.528;2023-09-30T11:47:29;20.60;99.90
27858;DHT22;16852;51.446;6.528;2023-09-30T11:49:42;20.60;99.90
27858;DHT22;16852;51.446;6.528;2023-09-30T11:51:45;20.60;99.90
27858;DHT22;16852;51.446;6.528;2023-09-30T11:53:46;20.60;99.90
27858;DHT22;16852;51.446;6.528;2023-09-30T11:55:49;20.70;99.90
27858;DHT22;16852;51.446;6.528;2023-09-30T11:57:50;20.70;99.90
27858;DHT22;16852;51.446;6.528;2023-09-30T11:59:52;20.70;99.90
27858;DHT22;16852;51.446;6.528;2023-09-30T12:01:53;20.70;99.90
27858;DHT22;16852;51.446;6.528;2023-09-30T12:03:53;20.80;99.90
27858;DHT22;16852;51.446;6.528;2023-09-30T12:05:57;20.80;99.90
27858;DHT22;16852;51.446;6.528;2023-09-30T12:07:58;20.70;99.90
27858;DHT22;16852;51.446;6.528;2023-09-30T12:09:58;20.70;99.90
27858;DHT22;16852;51.446;6.528;2023-09-30T12:11:59;20.70;99.90
27858;DHT22;16852;51.446;6.528;2023-09-30T12:13:59;20.70;99.90
27858;DHT22;16852;51.446;6.528;2023-09-30T12:16:01;20.80;99.90
27858;DHT22;16852;51.446;6.528;2023-09-30T12:18:01;20.80;99.90
27858;DHT22;16852;51.446;6.528;2023-09-30T12:20:02;20.80;99.90
27858;DHT22;16852;51.446;6.528;2023-09-30T12:22:04;20.80;99.90
27858;DHT22;16852;51.446;6.528;2023-09-30T12:24:04;20.90;99.90
27858;DHT22;16852;51.446;6.528;2023-09-30T12:26:05;20.80;99.90
27858;DHT22;16852;51.446;6.528;2023-09-30T12:28:06;20.80;99.90
27858;DHT22;16852;51.446;6.528;2023-09-30T12:30:07;20.90;99.90
27858;DHT22;16852;51.446;6.528;2023-09-30T12:32:07;20.90;99.90
27858;DHT22;16852;51.446;6.528;2023-09-30T12:34:08;20.90;99.90
27858;DHT22;16852;51.446;6.528;2023-09-30T12:36:09;21.00;99.90
27858;DHT22;16852;51.446;6.528;2023-09-30T12:38:10;21.00;99.90
27858;DHT22;16852;51.446;6.528;2023-09-30T12:40:11;21.00;99.90
27858;DHT22;16852;51.446;6.528;2023-09-30T12:42:14;21.10;99.90
27858;DHT22;16852;51.446;6.528;2023-09-30T12:44:16;21.10;99.90
27858;DHT22;16852;51.446;6.528;2023-09-30T12:46:17;21.10;99.90
27858;DHT22;16852;51.446;6.528;2023-09-30T12:48:18;21.10;99.90
27858;DHT22;16852;51.446;6.528;2023-09-30T12:50:19;21.10;99.90
27858;DHT22;16852;51.446;6.528;2023-09-30T12:52:22;21.20;99.90
27858;DHT22;16852;51.446;6.528;2023-09-30T12:54:24;21.10;99.90
27858;DHT22;16852;51.446;6.528;2023-09-30T12:56:25;21.20;99.90
27858;DHT22;16852;51.446;6.528;2023-09-30T12:58:26;21.20;99.90
27858;DHT22;16852;51.446;6.528;2023-09-30T13:00:28;21.20;99.90